Time;durP1;ratioP1;P1;durP2;ratioP2;P2;SDS_P1;SDS_P2;PMS_P1;PMS_P2;Temp;Humidity;BMP_temperature;BMP_pressure;BME280_temperature;BME280_humidity;BME280_pressure;Samples;Min_cycle;Max_cycle;Signal;HPM_P1;HPM_P2
2022/04/25 00:00:00;;;;;;;9.30;5.13;;;9.10;99.90;;;;;;5035724;28;20037;-84
2022/04/25 00:02:26;;;;;;;8.75;5.30;;;9.00;99.90;;;;;;5053253;28;20040;-83
2022/04/25 00:04:52;;;;;;;7.32;4.43;;;9.00;99.90;;;;;;5053480;28;20049;-83
2022/04/25 00:07:18;;;;;;;9.57;5.45;;;9.10;99.90;;;;;;5052772;28;20033;-83
2022/04/25 00:09:44;;;;;;;8.02;5.55;;;9.00;99.90;;;;;;5053197;28;20156;-83
2022/04/25 00:12:11;;;;;;;8.02;4.88;;;8.90;99.90;;;;;;5053132;28;20037;-82
2022/04/25 00:14:37;;;;;;;8.52;5.20;;;8.90;99.90;;;;;;5035253;28;20037;-83
2022/04/25 00:17:03;;;;;;;7.32;5.03;;;8.90;99.90;;;;;;5035119;28;20043;-82
2022/04/25 00:19:28;;;;;;;8.93;5.47;;;8.80;99.90;;;;;;5034728;28;20499;-82
2022/04/25 00:21:54;;;;;;;8.55;5.40;;;8.90;99.90;;;;;;5052597;28;20411;-82
2022/04/25 00:24:20;;;;;;;10.23;6.80;;;8.80;99.90;;;;;;5034838;28;20529;-81
2022/04/25 00:26:46;;;;;;;10.93;6.10;;;8.70;99.90;;;;;;5052526;28;20428;-82
2022/04/25 00:29:12;;;;;;;8.07;6.03;;;8.70;99.90;;;;;;5034531;28;20098;-81
2022/04/25 00:31:41;;;;;;;7.78;5.43;;;8.70;99.90;;;;;;5034932;28;20030;-82
2022/04/25 00:34:07;;;;;;;8.75;5.82;;;8.60;99.90;;;;;;5034768;28;20390;-80
2022/04/25 00:36:33;;;;;;;7.93;5.50;;;8.60;99.90;;;;;;5034712;28;20478;-83
2022/04/25 00:38:58;;;;;;;7.78;5.20;;;8.60;99.90;;;;;;5052888;28;20047;-83
2022/04/25 00:41:24;;;;;;;9.82;5.60;;;8.60;99.90;;;;;;5052454;28;20040;-83
2022/04/25 00:43:55;;;;;;;7.20;5.05;;;8.60;99.90;;;;;;5034728;28;20041;-81
2022/04/25 00:46:22;;;;;;;9.23;5.38;;;8.60;99.90;;;;;;5052612;28;20128;-83
2022/04/25 00:48:48;;;;;;;8.80;5.50;;;8.50;99.90;;;;;;5055052;28;20035;-83
2022/04/25 00:51:15;;;;;;;9.10;5.75;;;8.60;99.90;;;;;;5055896;28;20072;-83
2022/04/25 00:53:40;;;;;;;9.98;5.95;;;8.50;99.90;;;;;;5036832;28;20116;-81
2022/04/25 00:56:08;;;;;;;10.82;5.72;;;8.50;99.90;;;;;;5036016;28;20158;-82
2022/04/25 00:58:35;;;;;;;10.38;6.53;;;8.50;99.90;;;;;;5035590;28;20048;-82
2022/04/25 01:01:01;;;;;;;9.02;5.80;;;8.60;99.90;;;;;;5052399;28;20044;-81
2022/04/25 01:03:26;;;;;;;8.77;5.60;;;8.60;99.90;;;;;;5052866;28;20037;-82
2022/04/25 01:05:52;;;;;;;8.15;5.80;;;8.70;99.90;;;;;;5035053;28;20386;-83
2022/04/25 01:08:18;;;;;;;10.00;5.63;;;8.70;99.90;;;;;;5052544;28;20499;-82
2022/04/25 01:10:45;;;;;;;8.50;5.88;;;8.60;99.90;;;;;;5034425;28;20044;-83
2022/04/25 01:13:14;;;;;;;8.60;6.30;;;8.60;99.90;;;;;;5052448;28;20070;-83
2022/04/25 01:15:40;;;;;;;11.48;7.13;;;8.60;99.90;;;;;;5034536;28;20079;-83
2022/04/25 01:18:06;;;;;;;12.25;7.57;;;8.50;99.90;;;;;;5034343;28;20032;-83
2022/04/25 01:20:32;;;;;;;8.95;6.32;;;8.40;99.90;;;;;;5037747;28;20037;-82
2022/04/25 01:28:38;;;;;;;10.27;5.72;;;8.40;99.90;;;;;;5055918;28;20190;-82
2022/04/25 01:31:04;;;;;;;11.10;6.43;;;8.30;99.90;;;;;;5037971;28;20502;-82
2022/04/25 01:33:30;;;;;;;8.98;6.15;;;8.30;99.90;;;;;;5055762;28;20037;-81
2022/04/25 01:35:55;;;;;;;7.65;5.93;;;8.30;99.90;;;;;;5037746;28;20025;-82
2022/04/25 01:38:21;;;;;;;7.75;5.30;;;8.30;99.90;;;;;;5037502;28;20394;-83
2022/04/25 01:40:47;;;;;;;9.80;6.40;;;8.30;99.90;;;;;;5038253;28;20035;-82
2022/04/25 01:43:13;;;;;;;8.65;5.85;;;8.20;99.90;;;;;;5038303;28;20483;-82
2022/04/25 01:45:42;;;;;;;10.20;6.10;;;8.20;99.90;;;;;;5038066;28;20063;-83
2022/04/25 01:48:08;;;;;;;7.50;5.60;;;8.20;99.90;;;;;;5038160;28;20442;-82
2022/04/25 01:50:33;;;;;;;11.18;6.47;;;8.20;99.90;;;;;;5055916;28;20029;-82
2022/04/25 01:52:59;;;;;;;9.82;6.40;;;8.10;99.90;;;;;;5037284;28;20091;-82
2022/04/25 01:55:25;;;;;;;9.93;6.28;;;8.10;99.90;;;;;;5055112;28;20565;-82
2022/04/25 01:57:50;;;;;;;10.80;6.28;;;8.10;99.90;;;;;;5037442;28;20033;-82
2022/04/25 02:00:16;;;;;;;8.82;5.65;;;8.10;99.90;;;;;;5055209;28;20482;-82
2022/04/25 02:02:42;;;;;;;8.95;6.43;;;8.10;99.90;;;;;;5055128;28;20049;-83
2022/04/25 02:05:08;;;;;;;10.30;6.57;;;8.10;99.90;;;;;;5037381;28;20040;-83
2022/04/25 02:07:34;;;;;;;12.45;7.28;;;8.10;99.90;;;;;;5037335;28;20078;-82
2022/04/25 02:09:59;;;;;;;10.82;6.90;;;8.10;99.90;;;;;;5055930;28;20036;-82
2022/04/25 02:12:25;;;;;;;9.63;6.85;;;8.00;99.90;;;;;;5037986;28;20403;-81
2022/04/25 02:14:51;;;;;;;9.52;6.55;;;8.00;99.90;;;;;;5037017;28;20037;-83
2022/04/25 02:17:16;;;;;;;8.60;6.00;;;8.00;99.90;;;;;;5036893;28;20036;-81
2022/04/25 02:19:44;;;;;;;8.05;6.05;;;7.90;99.90;;;;;;5054965;28;20395;-82
2022/04/25 02:22:11;;;;;;;8.75;6.07;;;7.90;99.90;;;;;;5054794;28;20475;-82
2022/04/25 02:24:40;;;;;;;9.63;6.32;;;7.90;99.90;;;;;;5054781;28;20080;-82
2022/04/25 02:27:07;;;;;;;8.30;6.03;;;7.80;99.90;;;;;;5054500;28;20025;-82
2022/04/25 02:29:34;;;;;;;10.32;7.05;;;7.80;99.90;;;;;;5036563;28;20495;-82
2022/04/25 02:32:00;;;;;;;9.32;6.45;;;7.80;99.90;;;;;;5036032;28;20029;-82
2022/04/25 02:34:28;;;;;;;8.65;6.03;;;7.70;99.90;;;;;;5036928;28;20029;-82
2022/04/25 02:36:55;;;;;;;8.95;6.10;;;7.60;99.90;;;;;;5054732;28;20039;-83
2022/04/25 02:39:24;;;;;;;10.30;7.20;;;7.60;99.90;;;;;;5054819;28;20037;-80
2022/04/25 02:41:50;;;;;;;11.20;6.70;;;7.60;99.90;;;;;;5036351;28;20063;-81
2022/04/25 02:44:17;;;;;;;10.68;6.50;;;7.60;99.90;;;;;;5054315;28;20529;-82
2022/04/25 02:46:42;;;;;;;9.63;6.10;;;7.50;99.90;;;;;;5054404;28;20041;-81
2022/04/25 02:49:08;;;;;;;9.32;6.45;;;7.50;99.90;;;;;;5036229;28;20137;-82
2022/04/25 02:51:34;;;;;;;10.40;6.57;;;7.50;99.90;;;;;;5054211;28;20025;-82
2022/04/25 02:53:59;;;;;;;9.98;6.65;;;7.40;99.90;;;;;;5036674;28;20037;-81
2022/04/25 02:56:25;;;;;;;10.98;6.75;;;7.40;99.90;;;;;;5036058;28;20124;-82
2022/04/25 02:58:51;;;;;;;9.82;6.40;;;7.30;99.90;;;;;;5054580;28;20072;-81
2022/04/25 03:01:16;;;;;;;10.95;7.30;;;7.40;99.90;;;;;;5036089;28;20068;-81
2022/04/25 03:03:42;;;;;;;10.57;7.20;;;7.30;99.90;;;;;;5035774;28;20047;-82
2022/04/25 03:06:09;;;;;;;11.27;6.90;;;7.30;99.90;;;;;;5053997;28;20039;-81
2022/04/25 03:08:36;;;;;;;11.35;6.75;;;7.20;99.90;;;;;;5035828;28;20036;-81
2022/04/25 03:11:06;;;;;;;12.18;7.95;;;7.20;99.90;;;;;;5053778;28;20478;-82
2022/04/25 03:13:34;;;;;;;9.90;7.25;;;7.20;99.90;;;;;;5036196;28;20482;-81
2022/04/25 03:16:01;;;;;;;11.15;7.20;;;7.10;99.90;;;;;;5035716;28;20033;-82
2022/04/25 03:18:27;;;;;;;10.55;6.78;;;7.10;99.90;;;;;;5035721;28;20044;-82
2022/04/25 03:20:53;;;;;;;10.50;6.75;;;7.00;99.90;;;;;;5035798;28;20029;-81
2022/04/25 03:23:20;;;;;;;9.13;6.53;;;7.00;99.90;;;;;;5035640;28;20041;-81
2022/04/25 03:25:46;;;;;;;10.18;7.43;;;6.90;99.90;;;;;;5053316;28;20033;-80
2022/04/25 03:28:12;;;;;;;11.30;6.93;;;6.90;99.90;;;;;;5035597;28;20060;-80
2022/04/25 03:30:38;;;;;;;9.25;6.72;;;6.90;99.90;;;;;;5035475;28;20090;-82
2022/04/25 03:33:04;;;;;;;10.05;7.57;;;6.90;99.90;;;;;;5035631;28;20503;-81
2022/04/25 03:35:33;;;;;;;10.20;7.45;;;6.90;99.90;;;;;;5035680;28;20033;-82
2022/04/25 03:37:59;;;;;;;11.98;7.50;;;7.00;99.90;;;;;;5035453;28;20044;-81
2022/04/25 03:40:25;;;;;;;12.45;7.78;;;7.00;99.90;;;;;;5035346;28;20128;-81
2022/04/25 03:42:50;;;;;;;12.63;8.93;;;7.10;99.90;;;;;;5035654;28;20181;-82
2022/04/25 03:45:18;;;;;;;13.77;8.38;;;7.20;99.90;;;;;;5035541;28;20079;-81
2022/04/25 03:47:45;;;;;;;13.55;8.75;;;7.20;99.90;;;;;;5035341;28;20036;-81
2022/04/25 03:50:12;;;;;;;11.95;8.38;;;7.30;99.90;;;;;;5053013;28;20108;-82
2022/04/25 03:52:40;;;;;;;13.52;8.27;;;7.30;99.90;;;;;;5035346;28;20111;-81
2022/04/25 03:57:52;;;;;;;11.55;8.43;;;7.40;99.90;;;;;;5053367;28;20052;-82
2022/04/25 04:00:18;;;;;;;11.43;7.68;;;7.40;99.90;;;;;;5052969;28;20053;-82
2022/04/25 04:02:44;;;;;;;13.60;7.85;;;7.50;99.90;;;;;;5034779;28;20544;-82
2022/04/25 04:05:10;;;;;;;11.52;7.93;;;7.60;99.90;;;;;;5052958;28;20171;-84
2022/04/25 04:07:35;;;;;;;12.85;8.48;;;7.60;99.90;;;;;;5052795;28;20113;-83
2022/04/25 04:10:01;;;;;;;12.25;8.70;;;7.70;99.90;;;;;;5034635;28;20045;-82
2022/04/25 04:12:31;;;;;;;12.95;8.68;;;7.70;99.90;;;;;;5053015;28;20458;-82
2022/04/25 04:14:58;;;;;;;12.25;8.10;;;7.80;99.90;;;;;;5034892;28;20115;-82
2022/04/25 04:17:27;;;;;;;11.68;7.78;;;7.90;99.90;;;;;;5035164;28;20029;-82
2022/04/25 04:19:55;;;;;;;12.50;8.48;;;7.90;99.90;;;;;;5052716;28;20041;-82
2022/04/25 04:22:22;;;;;;;12.15;8.48;;;8.00;99.90;;;;;;5034710;28;20096;-82
2022/04/25 04:24:48;;;;;;;13.82;9.32;;;8.00;99.90;;;;;;5052721;28;20049;-83
2022/04/25 04:27:14;;;;;;;14.20;8.90;;;8.10;99.90;;;;;;5052508;28;20101;-82
2022/04/25 04:29:41;;;;;;;13.10;9.23;;;8.10;99.90;;;;;;5034518;28;20119;-81
2022/04/25 04:32:07;;;;;;;11.40;8.60;;;8.10;99.90;;;;;;5052475;28;20033;-83
2022/04/25 04:34:35;;;;;;;13.85;9.23;;;8.20;99.90;;;;;;5034787;28;20057;-82
2022/04/25 04:37:02;;;;;;;15.52;11.57;;;8.30;99.90;;;;;;5052758;28;20055;-82
2022/04/25 04:39:29;;;;;;;12.85;9.73;;;8.30;99.90;;;;;;5034713;28;20052;-83
2022/04/25 04:41:55;;;;;;;17.65;10.63;;;8.30;99.90;;;;;;5034868;28;20439;-82
2022/04/25 04:44:20;;;;;;;13.85;10.00;;;8.30;99.90;;;;;;5051543;28;20125;-82
2022/04/25 04:46:47;;;;;;;13.52;10.32;;;8.40;99.90;;;;;;5052682;28;20107;-82
2022/04/25 04:49:13;;;;;;;13.20;9.98;;;8.40;99.90;;;;;;5052596;28;20060;-81
2022/04/25 04:51:38;;;;;;;13.02;9.65;;;8.50;99.90;;;;;;5052213;28;20125;-81
2022/04/25 04:54:04;;;;;;;14.68;10.73;;;8.50;99.90;;;;;;5034125;28;20037;-83
2022/04/25 04:56:30;;;;;;;13.32;10.23;;;8.50;99.90;;;;;;5037235;28;20598;-81
2022/04/25 04:58:56;;;;;;;15.60;10.68;;;8.50;99.90;;;;;;5032261;28;20037;-83
2022/04/25 05:01:22;;;;;;;12.40;9.60;;;8.60;99.90;;;;;;5052508;28;20032;-81
2022/04/25 05:03:50;;;;;;;14.30;10.38;;;8.60;99.90;;;;;;5051588;28;20041;-82
2022/04/25 05:06:16;;;;;;;13.70;10.80;;;8.60;99.90;;;;;;5051608;28;20435;-84
2022/04/25 05:08:42;;;;;;;13.88;10.50;;;8.60;99.90;;;;;;5034502;28;20037;-83
2022/04/25 05:11:11;;;;;;;16.17;11.60;;;8.70;99.90;;;;;;5034670;28;20039;-83
2022/04/25 05:13:37;;;;;;;16.45;12.00;;;8.70;99.90;;;;;;5034892;28;20482;-83
2022/04/25 05:16:04;;;;;;;16.50;13.00;;;8.70;99.90;;;;;;5038881;28;20041;-80
2022/04/25 05:18:33;;;;;;;17.33;12.65;;;8.70;99.90;;;;;;5057685;28;20140;-83
2022/04/25 05:21:00;;;;;;;15.07;11.98;;;8.70;99.90;;;;;;5059229;28;20515;-82
2022/04/25 05:23:26;;;;;;;15.77;11.55;;;8.70;99.90;;;;;;5039906;28;20064;-82
2022/04/25 05:25:51;;;;;;;14.40;11.25;;;8.70;99.90;;;;;;5038379;28;20025;-82
2022/04/25 05:28:17;;;;;;;15.15;10.60;;;8.70;99.90;;;;;;5055902;28;20037;-82
2022/04/25 05:30:44;;;;;;;14.70;11.27;;;8.70;99.90;;;;;;5038162;28;20178;-82
2022/04/25 05:33:10;;;;;;;14.85;12.15;;;8.70;99.90;;;;;;5055972;28;20029;-83
2022/04/25 05:35:37;;;;;;;15.10;11.57;;;8.70;99.90;;;;;;5038159;28;20041;-81
2022/04/25 05:38:05;;;;;;;15.77;12.73;;;8.80;99.90;;;;;;5037848;28;20041;-82
2022/04/25 05:40:31;;;;;;;14.32;11.57;;;8.80;99.90;;;;;;5055910;28;20033;-82
2022/04/25 05:42:58;;;;;;;15.65;11.50;;;8.80;99.90;;;;;;5037470;28;20446;-82
2022/04/25 05:45:25;;;;;;;14.77;12.23;;;8.80;99.90;;;;;;5037510;28;20025;-82
2022/04/25 05:47:54;;;;;;;16.60;13.07;;;8.80;99.90;;;;;;5037548;28;20036;-81
2022/04/25 05:53:05;;;;;;;16.98;13.57;;;8.80;99.90;;;;;;5055268;28;20186;-82
2022/04/25 05:55:31;;;;;;;17.80;13.85;;;8.80;99.90;;;;;;5037404;28;20426;-82
2022/04/25 05:57:58;;;;;;;21.33;14.32;;;8.80;99.90;;;;;;5037485;28;20036;-83
2022/04/25 06:00:24;;;;;;;19.75;14.48;;;8.80;99.90;;;;;;5037388;28;20044;-83
2022/04/25 06:02:50;;;;;;;19.80;15.27;;;8.80;99.90;;;;;;5055438;28;20040;-83
2022/04/25 06:05:16;;;;;;;19.08;14.98;;;8.80;99.90;;;;;;5036440;28;20040;-83
2022/04/25 06:07:43;;;;;;;18.67;14.93;;;8.80;99.90;;;;;;5055500;28;20073;-83
2022/04/25 06:10:10;;;;;;;21.60;16.80;;;8.90;99.90;;;;;;5055784;28;20075;-83
2022/04/25 06:12:49;;;;;;;17.98;14.57;;;8.90;99.90;;;;;;5055453;28;20025;-82
2022/04/25 06:15:16;;;;;;;22.00;17.05;;;8.90;99.90;;;;;;5037499;28;20048;-83
2022/04/25 06:17:42;;;;;;;22.38;17.42;;;9.00;99.90;;;;;;5037353;28;20029;-83
2022/04/25 06:20:09;;;;;;;20.20;15.55;;;8.90;99.90;;;;;;5037171;28;20037;-83
2022/04/25 06:22:37;;;;;;;23.23;16.90;;;8.90;99.90;;;;;;5037207;28;20033;-82
2022/04/25 06:25:04;;;;;;;21.70;15.82;;;9.00;99.90;;;;;;5036609;28;20071;-84
2022/04/25 06:27:30;;;;;;;19.38;15.77;;;9.00;99.90;;;;;;5054748;28;20034;-82
2022/04/25 06:29:57;;;;;;;19.75;16.80;;;9.00;99.90;;;;;;5054627;28;20091;-83
2022/04/25 06:32:23;;;;;;;19.05;15.30;;;9.10;99.90;;;;;;5055003;28;20044;-83
2022/04/25 06:34:49;;;;;;;21.67;17.45;;;9.10;99.90;;;;;;5037009;28;20492;-82
2022/04/25 06:37:15;;;;;;;24.20;17.15;;;9.20;99.90;;;;;;5054770;28;20116;-84
2022/04/25 06:39:42;;;;;;;21.25;16.55;;;9.20;99.90;;;;;;5036791;28;20160;-81
2022/04/25 06:42:09;;;;;;;19.42;15.65;;;9.20;99.90;;;;;;5054411;28;20111;-82
2022/04/25 06:44:36;;;;;;;20.92;15.55;;;9.30;99.90;;;;;;5053965;28;20047;-83
2022/04/25 06:47:02;;;;;;;18.23;14.63;;;9.40;99.90;;;;;;5054563;28;20064;-82
2022/04/25 06:49:27;;;;;;;21.42;16.80;;;9.40;99.90;;;;;;5036323;28;20029;-82
2022/04/25 06:51:59;;;;;;;21.42;17.20;;;9.40;99.90;;;;;;5036612;28;20119;-83
2022/04/25 06:54:30;;;;;;;21.13;16.08;;;9.40;99.90;;;;;;5036403;28;20419;-83
2022/04/25 06:56:58;;;;;;;21.35;16.25;;;9.40;99.90;;;;;;5035710;28;20029;-82
2022/04/25 06:59:23;;;;;;;18.40;14.52;;;9.40;99.90;;;;;;5036317;28;20094;-81
2022/04/25 07:01:50;;;;;;;19.30;15.95;;;9.50;99.90;;;;;;5036404;28;20029;-84
2022/04/25 07:04:17;;;;;;;17.75;14.88;;;9.50;99.90;;;;;;5036000;28;20556;-83
2022/04/25 07:06:43;;;;;;;18.35;13.93;;;9.40;99.90;;;;;;5053621;28;20029;-83
2022/04/25 07:09:13;;;;;;;15.25;12.95;;;9.50;99.90;;;;;;5036262;28;20497;-80
2022/04/25 07:11:43;;;;;;;18.65;14.07;;;9.50;99.90;;;;;;5036722;28;20037;-83
2022/04/25 07:14:17;;;;;;;16.15;14.02;;;9.50;99.90;;;;;;5036486;28;20032;-83
2022/04/25 07:16:44;;;;;;;17.40;13.40;;;9.50;99.90;;;;;;5053964;28;20032;-85
2022/04/25 07:19:13;;;;;;;16.40;13.15;;;9.40;99.90;;;;;;5054407;28;20483;-84
2022/04/25 07:29:52;;;;;;;19.60;14.70;;;9.30;99.90;;;;;;5054363;28;20059;-85
2022/04/25 07:32:18;;;;;;;18.17;14.18;;;9.20;99.90;;;;;;5053891;28;20125;-85
2022/04/25 07:34:48;;;;;;;16.00;13.63;;;9.10;99.90;;;;;;5035802;28;20509;-84
2022/04/25 07:37:18;;;;;;;20.83;14.55;;;9.10;99.90;;;;;;5054410;28;20040;-85
2022/04/25 07:39:45;;;;;;;19.50;14.63;;;9.00;99.90;;;;;;5036149;28;20037;-86
2022/04/25 07:42:11;;;;;;;18.67;15.02;;;9.00;99.90;;;;;;5053920;28;20036;-84
2022/04/25 07:44:37;;;;;;;17.10;13.55;;;9.00;99.90;;;;;;5053315;28;20423;-84
2022/04/25 07:47:03;;;;;;;21.17;15.73;;;9.00;99.90;;;;;;5035762;28;20055;-84
2022/04/25 07:49:28;;;;;;;21.30;15.88;;;9.00;99.90;;;;;;5036336;28;20032;-84
2022/04/25 07:51:55;;;;;;;22.85;16.95;;;9.00;99.90;;;;;;5069392;28;20120;-85
2022/04/25 07:54:22;;;;;;;25.63;18.77;;;9.20;99.90;;;;;;5035761;28;20037;-84
2022/04/25 07:56:48;;;;;;;21.30;15.93;;;9.30;99.90;;;;;;5035262;28;20033;-83
2022/04/25 07:59:15;;;;;;;20.50;14.73;;;9.20;99.90;;;;;;5035673;28;20035;-84
2022/04/25 08:01:41;;;;;;;19.90;15.90;;;9.10;99.90;;;;;;5035669;28;20120;-83
2022/04/25 08:04:07;;;;;;;19.08;15.85;;;9.00;99.90;;;;;;5035496;28;20569;-83
2022/04/25 08:06:33;;;;;;;21.67;17.27;;;8.90;99.90;;;;;;5053668;28;20056;-84
2022/04/25 08:09:01;;;;;;;18.77;14.30;;;8.80;99.90;;;;;;5036037;28;20048;-83
2022/04/25 08:11:27;;;;;;;19.83;14.82;;;8.80;99.90;;;;;;5038012;28;20052;-84
2022/04/25 08:19:21;;;;;;;23.00;16.58;;;8.80;99.90;;;;;;5053764;28;20035;-84
2022/04/25 08:21:47;;;;;;;21.05;16.77;;;8.80;99.90;;;;;;5035528;28;20033;-83
2022/04/25 08:24:13;;;;;;;21.17;15.70;;;8.80;99.90;;;;;;5035326;28;20091;-83
2022/04/25 08:26:39;;;;;;;22.90;17.73;;;8.90;99.90;;;;;;5035802;28;20032;-83
2022/04/25 08:29:05;;;;;;;22.33;16.85;;;8.90;99.90;;;;;;5035224;28;20506;-83
2022/04/25 08:31:36;;;;;;;22.48;16.33;;;8.90;99.90;;;;;;5037903;28;20025;-83
2022/04/25 08:34:03;;;;;;;22.67;16.30;;;8.90;99.90;;;;;;5055161;28;20108;-84
2022/04/25 08:36:31;;;;;;;23.50;17.30;;;9.00;99.90;;;;;;5035994;28;20029;-82
2022/04/25 08:38:58;;;;;;;31.35;18.98;;;9.00;99.90;;;;;;5053958;28;20055;-82
2022/04/25 08:41:34;;;;;;;22.67;16.15;;;8.90;99.90;;;;;;5035515;28;20029;-82
2022/04/25 08:44:01;;;;;;;26.90;18.55;;;8.90;99.90;;;;;;5035854;28;20040;-83
2022/04/25 08:46:29;;;;;;;23.60;17.25;;;9.00;99.90;;;;;;5036202;28;20037;-82
2022/04/25 08:48:57;;;;;;;23.80;17.38;;;9.00;99.90;;;;;;5053364;28;20029;-83
2022/04/25 08:51:24;;;;;;;25.05;17.27;;;9.00;99.90;;;;;;5036761;28;20029;-82
2022/04/25 08:53:51;;;;;;;22.40;15.73;;;9.00;99.90;;;;;;5023203;28;20053;-82
2022/04/25 08:56:19;;;;;;;22.25;16.95;;;9.10;99.90;;;;;;5054345;28;20025;-82
2022/04/25 08:58:46;;;;;;;21.77;15.63;;;9.00;99.90;;;;;;5058414;28;20029;-82
2022/04/25 09:01:13;;;;;;;24.60;17.02;;;9.00;99.90;;;;;;5039185;28;20550;-82
2022/04/25 09:03:38;;;;;;;23.45;17.27;;;9.10;99.90;;;;;;5045276;28;20037;-81
2022/04/25 09:06:06;;;;;;;22.50;16.63;;;9.20;99.90;;;;;;5044617;28;20544;-82
2022/04/25 09:08:32;;;;;;;22.67;17.73;;;9.20;99.90;;;;;;5066191;28;20024;-83
2022/04/25 09:13:43;;;;;;;24.15;17.40;;;9.40;99.90;;;;;;5061669;28;20095;-84
2022/04/25 09:16:12;;;;;;;21.83;17.00;;;9.40;99.90;;;;;;5055163;28;20079;-85
2022/04/25 09:18:38;;;;;;;23.17;16.45;;;9.50;99.90;;;;;;5056882;28;20037;-81
2022/04/25 09:21:06;;;;;;;23.30;16.33;;;9.60;99.90;;;;;;5052889;28;20033;-83
2022/04/25 09:23:31;;;;;;;24.05;18.33;;;9.60;99.90;;;;;;5073045;28;20041;-81
2022/04/25 09:26:20;;;;;;;25.60;17.77;;;9.60;99.90;;;;;;5072356;28;20048;-82
2022/04/25 09:28:54;;;;;;;21.75;16.58;;;9.80;99.90;;;;;;5056481;28;20033;-84
2022/04/25 09:31:22;;;;;;;23.95;17.83;;;9.90;99.90;;;;;;5072782;28;20052;-83
2022/04/25 09:33:48;;;;;;;26.75;20.67;;;9.90;99.90;;;;;;5057412;28;20017;-83
2022/04/25 09:36:15;;;;;;;24.55;18.20;;;9.90;99.90;;;;;;5058640;28;20025;-85
2022/04/25 09:38:42;;;;;;;28.02;20.90;;;10.00;99.90;;;;;;5059104;28;20089;-85
2022/04/25 09:41:13;;;;;;;21.42;17.10;;;10.00;99.90;;;;;;5079394;28;20029;-83
2022/04/25 09:43:41;;;;;;;25.98;18.45;;;10.00;99.90;;;;;;5063174;28;20049;-85
2022/04/25 09:46:12;;;;;;;24.38;17.55;;;10.20;99.90;;;;;;5062212;28;20037;-84
2022/04/25 09:48:41;;;;;;;25.70;18.45;;;10.20;99.90;;;;;;5061668;28;20077;-83
2022/04/25 09:51:09;;;;;;;22.35;17.52;;;10.20;99.90;;;;;;5056692;28;20036;-83
2022/04/25 09:53:45;;;;;;;21.85;16.98;;;10.30;99.90;;;;;;5057960;28;20044;-82
2022/04/25 09:56:18;;;;;;;23.63;17.52;;;10.30;99.90;;;;;;5053480;28;20062;-83
2022/04/25 09:58:56;;;;;;;22.45;17.60;;;10.30;99.90;;;;;;5055036;28;20025;-84
2022/04/25 10:01:22;;;;;;;23.02;17.33;;;10.30;99.90;;;;;;5054662;28;20048;-84
2022/04/25 10:03:48;;;;;;;24.67;17.67;;;10.30;99.90;;;;;;5054183;28;20045;-86
2022/04/25 10:06:14;;;;;;;22.98;17.50;;;10.30;99.90;;;;;;5055847;28;20097;-83
2022/04/25 10:08:41;;;;;;;21.25;15.70;;;10.30;99.90;;;;;;5058660;28;20061;-85
2022/04/25 10:11:07;;;;;;;24.25;18.10;;;10.40;99.90;;;;;;5075534;28;20063;-82
2022/04/25 10:13:34;;;;;;;24.77;16.92;;;10.40;99.90;;;;;;5076131;28;20041;-85
2022/04/25 10:16:02;;;;;;;23.70;16.65;;;10.40;99.90;;;;;;5058232;28;20148;-84
2022/04/25 10:18:31;;;;;;;21.35;16.65;;;10.40;99.90;;;;;;5057407;28;20025;-81
2022/04/25 10:20:57;;;;;;;21.92;16.00;;;10.50;99.90;;;;;;5050568;28;20037;-84
2022/04/25 10:23:24;;;;;;;24.05;17.70;;;10.50;99.90;;;;;;5051654;28;20044;-88
2022/04/25 10:25:55;;;;;;;22.70;15.10;;;10.50;99.90;;;;;;5060467;28;20025;-83
2022/04/25 10:28:59;;;;;;;22.08;15.77;;;10.50;99.90;;;;;;5024072;28;20025;-84
2022/04/25 10:31:27;;;;;;;;;;;10.60;99.90;;;;;;5061730;28;20132;-85
2022/04/25 10:33:58;;;;;;;19.27;14.88;;;10.70;99.90;;;;;;5058248;28;19908;-85
2022/04/25 10:36:39;;;;;;;19.77;15.30;;;10.70;99.90;;;;;;5058244;28;20143;-83
2022/04/25 10:39:24;;;;;;;18.95;14.52;;;10.80;99.90;;;;;;5040250;28;20033;-85
2022/04/25 10:44:37;;;;;;;18.25;14.10;;;10.70;99.90;;;;;;5057167;28;20485;-83
2022/04/25 10:47:06;;;;;;;18.70;14.02;;;10.60;99.90;;;;;;5040009;28;20124;-84
2022/04/25 10:49:33;;;;;;;19.95;14.55;;;10.60;99.90;;;;;;5040735;28;20087;-86
2022/04/25 10:52:00;;;;;;;19.58;14.05;;;10.50;99.90;;;;;;5041834;28;20419;-85
2022/04/25 10:54:45;;;;;;;17.48;14.23;;;10.40;99.90;;;;;;5058046;28;20029;-83
2022/04/25 10:57:14;;;;;;;21.25;16.02;;;10.40;99.90;;;;;;5040647;28;20037;-83
2022/04/25 10:59:40;;;;;;;19.17;14.13;;;10.40;99.90;;;;;;5040027;28;20051;-86
2022/04/25 11:02:27;;;;;;;17.90;13.55;;;10.40;99.90;;;;;;5056947;28;20029;-84
2022/04/25 11:05:11;;;;;;;19.05;13.98;;;10.40;99.90;;;;;;5039141;28;20037;-85
2022/04/25 11:07:38;;;;;;;19.70;14.40;;;10.40;99.90;;;;;;5036289;28;20116;-84
2022/04/25 11:10:47;;;;;;;20.27;14.93;;;10.40;99.90;;;;;;5096393;27;544106;-83
2022/04/25 11:13:15;;;;;;;18.42;13.90;;;10.50;99.90;;;;;;5092246;28;20078;-86
2022/04/25 11:15:44;;;;;;;18.00;14.48;;;10.50;99.90;;;;;;5099457;28;20068;-83
2022/04/25 11:18:37;;;;;;;17.42;12.27;;;10.60;99.90;;;;;;5099071;28;20473;-82
2022/04/25 11:21:30;;;;;;;15.10;10.95;;;10.70;99.90;;;;;;5110597;28;20026;-88
2022/04/25 11:23:57;;;;;;;12.30;10.02;;;10.70;99.90;;;;;;5105655;28;20032;-84
2022/04/25 11:26:22;;;;;;;14.43;11.13;;;10.80;99.90;;;;;;5121342;28;20035;-84
2022/04/25 11:28:54;;;;;;;16.40;11.73;;;10.80;99.90;;;;;;5107968;28;20110;-81
2022/04/25 11:31:25;;;;;;;17.60;13.25;;;10.80;99.90;;;;;;5104564;28;20439;-83
2022/04/25 11:34:00;;;;;;;17.02;12.52;;;10.70;99.90;;;;;;5118501;28;20095;-81
2022/04/25 11:36:26;;;;;;;15.23;11.73;;;10.70;99.90;;;;;;5109713;28;20016;-83
2022/04/25 11:41:41;;;;;;;17.02;11.07;;;10.90;99.90;;;;;;5122199;28;20120;-84
2022/04/25 11:44:08;;;;;;;15.07;10.85;;;11.00;99.90;;;;;;5094485;28;21160;-84
2022/04/25 11:46:36;;;;;;;16.77;12.00;;;11.10;99.90;;;;;;5104042;28;20020;-84
2022/04/25 11:49:02;;;;;;;15.30;10.23;;;11.20;99.90;;;;;;5128924;28;20024;-85
2022/04/25 11:51:37;;;;;;;14.93;11.35;;;11.30;99.90;;;;;;5101302;28;20465;-87
2022/04/25 11:54:10;;;;;;;14.23;10.57;;;11.40;99.90;;;;;;5102197;28;20114;-82
2022/04/25 11:56:39;;;;;;;15.80;10.77;;;11.30;99.90;;;;;;5098971;28;20102;-82
2022/04/25 11:59:23;;;;;;;16.00;11.05;;;11.30;99.90;;;;;;5104658;28;20495;-84
2022/04/25 12:01:49;;;;;;;;;;;11.20;99.90;;;;;;5121113;28;20431;-85
2022/04/25 12:04:23;;;;;;;13.75;10.63;;;11.10;99.90;;;;;;5107226;28;20273;-85
2022/04/25 12:06:58;;;;;;;16.05;12.90;;;11.00;99.90;;;;;;5111928;28;20015;-85
2022/04/25 12:18:25;;;;;;;14.68;11.40;;;10.80;99.90;;;;;;5113886;28;20035;-85
2022/04/25 12:21:05;;;;;;;13.48;10.00;;;10.90;99.90;;;;;;5086795;28;20024;-85
2022/04/25 12:23:33;;;;;;;16.27;11.52;;;11.00;99.90;;;;;;5097437;28;20252;-83
2022/04/25 12:26:03;;;;;;;14.65;10.13;;;11.20;99.90;;;;;;5088024;28;20030;-84
2022/04/25 12:28:30;;;;;;;15.82;12.25;;;11.30;99.90;;;;;;5113639;28;20370;-86
2022/04/25 12:31:10;;;;;;;14.00;11.10;;;11.40;99.90;;;;;;5097419;28;20057;-83
2022/04/25 12:33:45;;;;;;;15.57;11.70;;;11.40;99.90;;;;;;5090274;28;20036;-84
2022/04/25 12:36:18;;;;;;;16.75;12.90;;;11.40;99.90;;;;;;5079156;28;20574;-84
2022/04/25 12:38:51;;;;;;;16.65;12.18;;;11.50;99.90;;;;;;5089805;28;20028;-85
2022/04/25 12:41:24;;;;;;;17.90;12.98;;;11.50;99.90;;;;;;5083554;28;20457;-84
2022/04/25 12:43:53;;;;;;;19.08;12.68;;;11.50;99.90;;;;;;5096806;28;20023;-84
2022/04/25 12:46:43;;;;;;;16.63;12.70;;;11.30;99.90;;;;;;5083876;28;20035;-84
2022/04/25 12:49:14;;;;;;;15.45;12.10;;;11.20;99.90;;;;;;5095463;28;20032;-84
2022/04/25 12:51:50;;;;;;;20.30;13.45;;;11.10;99.90;;;;;;5086637;28;20536;-84
2022/04/25 12:54:24;;;;;;;15.50;11.90;;;11.00;99.90;;;;;;5115886;28;20393;-81
2022/04/25 12:57:15;;;;;;;15.70;11.70;;;11.10;99.90;;;;;;5087911;28;20473;-84
2022/04/25 12:59:54;;;;;;;15.65;11.85;;;11.10;99.90;;;;;;5074284;28;20031;-84
2022/04/25 13:02:32;;;;;;;14.55;10.48;;;11.20;99.90;;;;;;5097715;28;20034;-84
2022/04/25 13:05:03;;;;;;;14.00;10.48;;;11.30;99.90;;;;;;5111703;28;20016;-85
2022/04/25 13:07:37;;;;;;;14.30;10.20;;;11.30;99.90;;;;;;5082811;28;20019;-83
2022/04/25 13:10:08;;;;;;;16.88;12.38;;;11.30;99.90;;;;;;5089768;28;20097;-83
2022/04/25 13:12:39;;;;;;;15.25;11.50;;;11.20;99.90;;;;;;5081675;28;20107;-85
2022/04/25 13:15:17;;;;;;;16.35;13.25;;;11.10;99.90;;;;;;5096868;28;20092;-84
2022/04/25 13:17:43;;;;;;;18.00;12.70;;;11.10;99.90;;;;;;5080010;28;20009;-83
2022/04/25 13:20:12;;;;;;;16.92;13.48;;;11.00;99.90;;;;;;5078058;28;20019;-83
2022/04/25 13:22:38;;;;;;;18.25;13.23;;;10.90;99.90;;;;;;5095211;28;20031;-84
2022/04/25 13:25:07;;;;;;;17.10;12.82;;;10.80;99.90;;;;;;5099261;28;20092;-85
2022/04/25 13:27:34;;;;;;;16.60;12.23;;;10.80;99.90;;;;;;5093959;28;20390;-85